JTC554 KTEB-EGBJ
Flight info
| Callsign | JTC554 |
|---|---|
| Flight time | 6h 17m |
| Altitude | 45000 |
| Route | FARLE Q75 COPLY Q475 TUSKY N429A ELSIR 51N045W 52N037W 53N029W 53N021W GISTI UNBEG NIRIF OKTAD |
| Aircraft | C750/M-SBDE3FGHRWXY/S |
Departure
| Time | 2026-04-24 00:21 |
|---|---|
| Airport | Teterboro Airport (KTEB) |
Arrival
| Time | 2026-04-24 06:38 |
|---|---|
| Airport | Gloucestershire Airport (EGBJ) |
| Time | Latitude | Longitude | Altitude | Speed | Heading |
|---|---|---|---|---|---|
| 2026-04-24 00:01 | 40.85409 | -74.05540 | 12 ft | 0 kts | 33° |
| 2026-04-24 00:13 | 40.85412 | -74.05539 | 12 ft | 2 kts | 16° |
| 2026-04-24 00:14 | 40.85429 | -74.05581 | 12 ft | 8 kts | 283° |
| 2026-04-24 00:14 | 40.85431 | -74.05593 | 12 ft | 0 kts | 284° |
| 2026-04-24 00:15 | 40.85432 | -74.05599 | 12 ft | 3 kts | 284° |
| 2026-04-24 00:15 | 40.85442 | -74.05652 | 13 ft | 10 kts | 274° |
| 2026-04-24 00:15 | 40.85407 | -74.05736 | 13 ft | 14 kts | 227° |
| 2026-04-24 00:15 | 40.85324 | -74.05861 | 10 ft | 22 kts | 229° |
| 2026-04-24 00:16 | 40.85222 | -74.06015 | 11 ft | 21 kts | 227° |
| 2026-04-24 00:16 | 40.85107 | -74.06093 | 10 ft | 19 kts | 186° |
| 2026-04-24 00:16 | 40.84965 | -74.06106 | 10 ft | 22 kts | 182° |
| 2026-04-24 00:16 | 40.84805 | -74.06116 | 11 ft | 24 kts | 182° |
| 2026-04-24 00:17 | 40.84643 | -74.06128 | 11 ft | 23 kts | 184° |
| 2026-04-24 00:17 | 40.84483 | -74.06141 | 10 ft | 23 kts | 182° |
| 2026-04-24 00:17 | 40.84322 | -74.06150 | 11 ft | 22 kts | 183° |
| 2026-04-24 00:17 | 40.84179 | -74.06160 | 11 ft | 18 kts | 183° |
| 2026-04-24 00:18 | 40.84060 | -74.06170 | 10 ft | 15 kts | 184° |
| 2026-04-24 00:18 | 40.83971 | -74.06178 | 12 ft | 12 kts | 183° |
| 2026-04-24 00:18 | 40.83915 | -74.06182 | 14 ft | 0 kts | 182° |
| 2026-04-24 00:18 | 40.83889 | -74.06179 | 14 ft | 6 kts | 161° |
| 2026-04-24 00:19 | 40.83881 | -74.06147 | 13 ft | 0 kts | 89° |
| 2026-04-24 00:19 | 40.83881 | -74.06138 | 13 ft | 6 kts | 89° |
| 2026-04-24 00:20 | 40.83887 | -74.06052 | 10 ft | 10 kts | 53° |
| 2026-04-24 00:20 | 40.84043 | -74.06031 | 13 ft | 55 kts | 2° |
| 2026-04-24 00:20 | 40.84722 | -74.05978 | 13 ft | 132 kts | 2° |
| 2026-04-24 00:20 | 40.85691 | -74.05858 | 395 ft | 145 kts | 5° |
| 2026-04-24 00:21 | 40.86693 | -74.05486 | 882 ft | 154 kts | 20° |
| 2026-04-24 00:21 | 40.87646 | -74.04802 | 1497 ft | 156 kts | 26° |
| 2026-04-24 00:21 | 40.88244 | -74.04298 | 1990 ft | 152 kts | 26° |
| 2026-04-24 00:21 | 40.89221 | -74.03832 | 2442 ft | 157 kts | 358° |
| 2026-04-24 00:22 | 40.90221 | -74.04517 | 2578 ft | 183 kts | 307° |
| 2026-04-24 00:22 | 40.90505 | -74.06291 | 2855 ft | 217 kts | 271° |
| 2026-04-24 00:22 | 40.90344 | -74.08369 | 3355 ft | 236 kts | 267° |
| 2026-04-24 00:22 | 40.90156 | -74.10604 | 3937 ft | 249 kts | 268° |
| 2026-04-24 00:23 | 40.89973 | -74.12852 | 4831 ft | 245 kts | 267° |
| 2026-04-24 00:23 | 40.89791 | -74.15156 | 5029 ft | 255 kts | 268° |
| 2026-04-24 00:23 | 40.89599 | -74.17481 | 5009 ft | 254 kts | 268° |
| 2026-04-24 00:23 | 40.89403 | -74.19805 | 5018 ft | 254 kts | 267° |
| 2026-04-24 00:24 | 40.89263 | -74.22124 | 4980 ft | 252 kts | 275° |
| 2026-04-24 00:24 | 40.89903 | -74.24183 | 4949 ft | 253 kts | 311° |
| 2026-04-24 00:24 | 40.91503 | -74.25203 | 5668 ft | 256 kts | 353° |
| 2026-04-24 00:24 | 40.93170 | -74.24601 | 6799 ft | 261 kts | 25° |
| 2026-04-24 00:25 | 40.94494 | -74.22859 | 7564 ft | 276 kts | 44° |
| 2026-04-24 00:25 | 40.95636 | -74.20781 | 8393 ft | 282 kts | 46° |
| 2026-04-24 00:25 | 40.96758 | -74.18615 | 9176 ft | 288 kts | 47° |
| 2026-04-24 00:25 | 40.97897 | -74.16409 | 9924 ft | 293 kts | 46° |
| 2026-04-24 00:26 | 40.99023 | -74.14098 | 10318 ft | 310 kts | 48° |
| 2026-04-24 00:26 | 41.00206 | -74.11571 | 10345 ft | 336 kts | 49° |
| 2026-04-24 00:26 | 41.01481 | -74.08849 | 10425 ft | 357 kts | 50° |
| 2026-04-24 00:26 | 41.02799 | -74.06057 | 11047 ft | 357 kts | 49° |
| 2026-04-24 00:27 | 41.04127 | -74.03259 | 11616 ft | 360 kts | 49° |
| 2026-04-24 00:27 | 41.05463 | -74.00450 | 12250 ft | 361 kts | 49° |
| 2026-04-24 00:27 | 41.06805 | -73.97617 | 12820 ft | 365 kts | 49° |
| 2026-04-24 00:27 | 41.08160 | -73.94744 | 13464 ft | 367 kts | 49° |
| 2026-04-24 00:28 | 41.09516 | -73.91871 | 13984 ft | 370 kts | 48° |
| 2026-04-24 00:28 | 41.10890 | -73.88971 | 14443 ft | 373 kts | 48° |
| 2026-04-24 00:28 | 41.12271 | -73.86042 | 14903 ft | 377 kts | 48° |
| 2026-04-24 00:28 | 41.13649 | -73.83115 | 15358 ft | 380 kts | 49° |
| 2026-04-24 00:29 | 41.15058 | -73.80133 | 15834 ft | 382 kts | 48° |
| 2026-04-24 00:29 | 41.16654 | -73.77343 | 16264 ft | 379 kts | 41° |
| 2026-04-24 00:29 | 41.18338 | -73.74654 | 16721 ft | 381 kts | 40° |
| 2026-04-24 00:29 | 41.20031 | -73.71910 | 17202 ft | 386 kts | 41° |
| 2026-04-24 00:30 | 41.21716 | -73.69095 | 17712 ft | 390 kts | 42° |
| 2026-04-24 00:30 | 41.23416 | -73.66273 | 18257 ft | 393 kts | 41° |
| 2026-04-24 00:30 | 41.25146 | -73.63445 | 18839 ft | 394 kts | 40° |
| 2026-04-24 00:30 | 41.26880 | -73.60605 | 19328 ft | 398 kts | 40° |
| 2026-04-24 00:31 | 41.28640 | -73.57754 | 19799 ft | 397 kts | 38° |
| 2026-04-24 00:31 | 41.30557 | -73.55127 | 20251 ft | 397 kts | 34° |
| 2026-04-24 00:31 | 41.32516 | -73.52516 | 20775 ft | 399 kts | 34° |
| 2026-04-24 00:31 | 41.34476 | -73.49867 | 21277 ft | 404 kts | 34° |
| 2026-04-24 00:32 | 41.36444 | -73.47168 | 21765 ft | 408 kts | 35° |
| 2026-04-24 00:32 | 41.38415 | -73.44481 | 22253 ft | 411 kts | 34° |
| 2026-04-24 00:32 | 41.40427 | -73.41755 | 22758 ft | 414 kts | 34° |
| 2026-04-24 00:32 | 41.42450 | -73.39002 | 23300 ft | 417 kts | 34° |
| 2026-04-24 00:33 | 41.44480 | -73.36227 | 23733 ft | 420 kts | 34° |
| 2026-04-24 00:33 | 41.46520 | -73.33438 | 24221 ft | 420 kts | 34° |
| 2026-04-24 00:33 | 41.48571 | -73.30640 | 24628 ft | 423 kts | 34° |
| 2026-04-24 00:33 | 41.50640 | -73.27854 | 25149 ft | 422 kts | 33° |
| 2026-04-24 00:34 | 41.52717 | -73.25082 | 25577 ft | 424 kts | 33° |
| 2026-04-24 00:34 | 41.54803 | -73.22285 | 26014 ft | 426 kts | 34° |
| 2026-04-24 00:34 | 41.56892 | -73.19462 | 26430 ft | 428 kts | 34° |
| 2026-04-24 00:34 | 41.58984 | -73.16633 | 26860 ft | 429 kts | 34° |
| 2026-04-24 00:35 | 41.61096 | -73.13785 | 27220 ft | 432 kts | 34° |
| 2026-04-24 00:35 | 41.63216 | -73.10925 | 27639 ft | 434 kts | 34° |
| 2026-04-24 00:35 | 41.65343 | -73.08046 | 28083 ft | 436 kts | 34° |
| 2026-04-24 00:35 | 41.67480 | -73.05151 | 28493 ft | 438 kts | 34° |
| 2026-04-24 00:36 | 41.69598 | -73.02280 | 28885 ft | 440 kts | 34° |
| 2026-04-24 00:36 | 41.71759 | -72.99351 | 29265 ft | 443 kts | 34° |
| 2026-04-24 00:36 | 41.73925 | -72.96408 | 29682 ft | 445 kts | 34° |
| 2026-04-24 00:36 | 41.76097 | -72.93452 | 30182 ft | 445 kts | 33° |
| 2026-04-24 00:37 | 41.78274 | -72.90487 | 30545 ft | 446 kts | 33° |
| 2026-04-24 00:37 | 41.80459 | -72.87518 | 30861 ft | 448 kts | 33° |
| 2026-04-24 00:37 | 41.82637 | -72.84545 | 31373 ft | 446 kts | 33° |
| 2026-04-24 00:37 | 41.84803 | -72.81579 | 31869 ft | 444 kts | 33° |
| 2026-04-24 00:38 | 41.86965 | -72.78627 | 32330 ft | 443 kts | 33° |
| 2026-04-24 00:38 | 41.89121 | -72.75684 | 32816 ft | 441 kts | 33° |
| 2026-04-24 00:38 | 41.91265 | -72.72747 | 33344 ft | 440 kts | 33° |
| 2026-04-24 00:38 | 41.93269 | -72.69577 | 33800 ft | 455 kts | 43° |
| 2026-04-24 00:39 | 41.94831 | -72.65801 | 34240 ft | 473 kts | 54° |
| 2026-04-24 00:39 | 41.95978 | -72.61600 | 34631 ft | 480 kts | 59° |
| 2026-04-24 00:39 | 41.97030 | -72.57326 | 35022 ft | 483 kts | 60° |
| 2026-04-24 00:39 | 41.98090 | -72.53042 | 35329 ft | 484 kts | 59° |
| 2026-04-24 00:40 | 41.99182 | -72.48765 | 35716 ft | 483 kts | 59° |
| 2026-04-24 00:40 | 42.00273 | -72.44491 | 36095 ft | 484 kts | 59° |
| 2026-04-24 00:40 | 42.01346 | -72.40203 | 36492 ft | 484 kts | 60° |
| 2026-04-24 00:40 | 42.02413 | -72.35903 | 36883 ft | 484 kts | 60° |
| 2026-04-24 00:41 | 42.03475 | -72.31669 | 37256 ft | 484 kts | 59° |
| 2026-04-24 00:41 | 42.04568 | -72.27327 | 37656 ft | 484 kts | 60° |
| 2026-04-24 00:41 | 42.05626 | -72.23090 | 38082 ft | 485 kts | 60° |
| 2026-04-24 00:41 | 42.06692 | -72.18789 | 38473 ft | 485 kts | 60° |
| 2026-04-24 00:42 | 42.07760 | -72.14485 | 38801 ft | 484 kts | 60° |
| 2026-04-24 00:42 | 42.08828 | -72.10191 | 39127 ft | 484 kts | 60° |
| 2026-04-24 00:42 | 42.09894 | -72.05893 | 39471 ft | 483 kts | 61° |
| 2026-04-24 00:42 | 42.10952 | -72.01605 | 39791 ft | 483 kts | 61° |
| 2026-04-24 00:43 | 42.12009 | -71.97314 | 40134 ft | 482 kts | 62° |
| 2026-04-24 00:43 | 42.13066 | -71.93028 | 40445 ft | 482 kts | 62° |
| 2026-04-24 00:43 | 42.14122 | -71.88734 | 40797 ft | 482 kts | 62° |
| 2026-04-24 00:43 | 42.15176 | -71.84442 | 41044 ft | 484 kts | 63° |
| 2026-04-24 00:44 | 42.16231 | -71.80129 | 41385 ft | 483 kts | 63° |
| 2026-04-24 00:44 | 42.17281 | -71.75827 | 41728 ft | 483 kts | 64° |
| 2026-04-24 00:44 | 42.18334 | -71.71519 | 42032 ft | 483 kts | 64° |
| 2026-04-24 00:44 | 42.19374 | -71.67254 | 42355 ft | 483 kts | 64° |
| 2026-04-24 00:45 | 42.20429 | -71.62909 | 42686 ft | 483 kts | 65° |
| 2026-04-24 00:45 | 42.21458 | -71.58664 | 43000 ft | 482 kts | 65° |
| 2026-04-24 00:45 | 42.22498 | -71.54371 | 43329 ft | 482 kts | 66° |
| 2026-04-24 00:45 | 42.23538 | -71.50071 | 43653 ft | 481 kts | 66° |
| 2026-04-24 00:46 | 42.24574 | -71.45779 | 43963 ft | 481 kts | 67° |
| 2026-04-24 00:46 | 42.25605 | -71.41494 | 44268 ft | 480 kts | 67° |
| 2026-04-24 00:46 | 42.26636 | -71.37205 | 44569 ft | 479 kts | 68° |
| 2026-04-24 00:46 | 42.27662 | -71.32930 | 44833 ft | 479 kts | 68° |
| 2026-04-24 00:47 | 42.29724 | -71.24320 | 44936 ft | 484 kts | 68° |
| 2026-04-24 00:47 | 42.31795 | -71.15624 | 44942 ft | 489 kts | 69° |
| 2026-04-24 00:48 | 42.33881 | -71.06843 | 44961 ft | 493 kts | 69° |
| 2026-04-24 00:48 | 42.36040 | -70.98019 | 44939 ft | 494 kts | 64° |
| 2026-04-24 00:49 | 42.38842 | -70.89519 | 44952 ft | 496 kts | 62° |
| 2026-04-24 00:49 | 42.41638 | -70.80928 | 44945 ft | 501 kts | 63° |
| 2026-04-24 00:50 | 42.44449 | -70.72272 | 44939 ft | 504 kts | 62° |
| 2026-04-24 00:50 | 42.47278 | -70.63565 | 44937 ft | 507 kts | 63° |
| 2026-04-24 00:51 | 42.50078 | -70.54868 | 44925 ft | 493 kts | 63° |
| 2026-04-24 00:51 | 42.52833 | -70.46360 | 44929 ft | 494 kts | 63° |
| 2026-04-24 00:52 | 42.55584 | -70.37784 | 44933 ft | 497 kts | 63° |
| 2026-04-24 00:52 | 42.58353 | -70.29156 | 44939 ft | 500 kts | 63° |
| 2026-04-24 00:53 | 42.61125 | -70.20474 | 44943 ft | 502 kts | 63° |
| 2026-04-24 00:53 | 42.63899 | -70.11756 | 44934 ft | 504 kts | 63° |
| 2026-04-24 00:54 | 42.66662 | -70.03032 | 44938 ft | 501 kts | 63° |
| 2026-04-24 00:54 | 42.69379 | -69.94390 | 44936 ft | 500 kts | 63° |
| 2026-04-24 00:55 | 42.72098 | -69.85676 | 44958 ft | 501 kts | 63° |
| 2026-04-24 00:55 | 42.74828 | -69.76925 | 44922 ft | 502 kts | 63° |
| 2026-04-24 00:56 | 42.77547 | -69.68160 | 44929 ft | 502 kts | 63° |
| 2026-04-24 00:56 | 42.80255 | -69.59414 | 44930 ft | 500 kts | 63° |
| 2026-04-24 00:57 | 42.82950 | -69.50678 | 44933 ft | 501 kts | 63° |
| 2026-04-24 00:58 | 42.86979 | -69.37565 | 44925 ft | 503 kts | 63° |
| 2026-04-24 00:58 | 42.89671 | -69.28760 | 44928 ft | 503 kts | 63° |
| 2026-04-24 00:59 | 42.92355 | -69.19960 | 44922 ft | 502 kts | 63° |
| 2026-04-24 00:59 | 42.95035 | -69.11137 | 44929 ft | 503 kts | 63° |
| 2026-04-24 01:00 | 42.97709 | -69.02307 | 44923 ft | 504 kts | 64° |
| 2026-04-24 01:00 | 43.00381 | -68.93453 | 44933 ft | 504 kts | 63° |
| 2026-04-24 01:01 | 43.03041 | -68.84606 | 44916 ft | 502 kts | 63° |
| 2026-04-24 01:01 | 43.05693 | -68.75764 | 44915 ft | 503 kts | 64° |
| 2026-04-24 01:02 | 43.08324 | -68.66949 | 44916 ft | 504 kts | 64° |
| 2026-04-24 01:02 | 43.10970 | -68.58063 | 44920 ft | 504 kts | 64° |
| 2026-04-24 01:03 | 43.13609 | -68.49165 | 44922 ft | 505 kts | 64° |
| 2026-04-24 01:03 | 43.16243 | -68.40252 | 44912 ft | 505 kts | 64° |
| 2026-04-24 01:04 | 43.18871 | -68.31333 | 44916 ft | 505 kts | 64° |
| 2026-04-24 01:04 | 43.21498 | -68.22383 | 44906 ft | 506 kts | 64° |
| 2026-04-24 01:05 | 43.24120 | -68.13418 | 44906 ft | 506 kts | 64° |
| 2026-04-24 01:05 | 43.26736 | -68.04445 | 44902 ft | 506 kts | 64° |
| 2026-04-24 01:06 | 43.29344 | -67.95466 | 44891 ft | 506 kts | 64° |
| 2026-04-24 01:06 | 43.31928 | -67.86536 | 44888 ft | 506 kts | 64° |
| 2026-04-24 01:07 | 43.34523 | -67.77539 | 44892 ft | 508 kts | 65° |
| 2026-04-24 01:07 | 43.37122 | -67.68494 | 44893 ft | 508 kts | 65° |
| 2026-04-24 01:08 | 43.39289 | -67.60927 | 44886 ft | 507 kts | 65° |
| 2026-04-24 01:08 | 43.41867 | -67.51895 | 44885 ft | 508 kts | 65° |
| 2026-04-24 01:09 | 43.44440 | -67.42849 | 44885 ft | 508 kts | 65° |
| 2026-04-24 01:09 | 43.46989 | -67.33854 | 44884 ft | 507 kts | 65° |
| 2026-04-24 01:10 | 43.49980 | -67.23258 | 44889 ft | 507 kts | 65° |
| 2026-04-24 01:10 | 43.52100 | -67.15724 | 44891 ft | 507 kts | 65° |
| 2026-04-24 01:11 | 43.54644 | -67.06643 | 44872 ft | 508 kts | 65° |
| 2026-04-24 01:11 | 43.57573 | -66.97838 | 44865 ft | 501 kts | 54° |
| 2026-04-24 01:12 | 43.61613 | -66.90037 | 44888 ft | 499 kts | 50° |
| 2026-04-24 01:12 | 43.65588 | -66.82167 | 44884 ft | 500 kts | 52° |
| 2026-04-24 01:13 | 43.69585 | -66.74307 | 44880 ft | 499 kts | 51° |
| 2026-04-24 01:13 | 43.73584 | -66.66419 | 44894 ft | 502 kts | 52° |
| 2026-04-24 01:14 | 43.77569 | -66.58508 | 44880 ft | 501 kts | 51° |
| 2026-04-24 01:14 | 43.81566 | -66.50590 | 44879 ft | 501 kts | 52° |
| 2026-04-24 01:15 | 43.85519 | -66.42705 | 44881 ft | 501 kts | 52° |
| 2026-04-24 01:15 | 43.89500 | -66.34767 | 44885 ft | 501 kts | 52° |
| 2026-04-24 01:16 | 43.93468 | -66.26818 | 44883 ft | 501 kts | 52° |
| 2026-04-24 01:16 | 43.97437 | -66.18855 | 44884 ft | 502 kts | 52° |
| 2026-04-24 01:17 | 44.01403 | -66.10869 | 44895 ft | 502 kts | 52° |
| 2026-04-24 01:17 | 44.05362 | -66.02880 | 44880 ft | 502 kts | 52° |
| 2026-04-24 01:18 | 44.09321 | -65.94867 | 44882 ft | 503 kts | 52° |
| 2026-04-24 01:18 | 44.13280 | -65.86832 | 44881 ft | 503 kts | 52° |
| 2026-04-24 01:19 | 44.17235 | -65.78784 | 44881 ft | 503 kts | 52° |
| 2026-04-24 01:19 | 44.21184 | -65.70724 | 44881 ft | 504 kts | 52° |
| 2026-04-24 01:20 | 44.25128 | -65.62654 | 44878 ft | 504 kts | 53° |
| 2026-04-24 01:20 | 44.29067 | -65.54569 | 44879 ft | 504 kts | 53° |
| 2026-04-24 01:21 | 44.33003 | -65.46472 | 44871 ft | 504 kts | 53° |
| 2026-04-24 01:21 | 44.36932 | -65.38363 | 44872 ft | 504 kts | 53° |
| 2026-04-24 01:22 | 44.40831 | -65.30293 | 44871 ft | 504 kts | 53° |
| 2026-04-24 01:22 | 44.44754 | -65.22154 | 44869 ft | 504 kts | 53° |
| 2026-04-24 01:23 | 44.48667 | -65.14008 | 44865 ft | 504 kts | 53° |
| 2026-04-24 01:23 | 44.52575 | -65.05853 | 44858 ft | 504 kts | 53° |
| 2026-04-24 01:24 | 44.56480 | -64.97681 | 44862 ft | 504 kts | 54° |
| 2026-04-24 01:24 | 44.60374 | -64.89508 | 44861 ft | 504 kts | 54° |
| 2026-04-24 01:25 | 44.64261 | -64.81326 | 44859 ft | 504 kts | 54° |
| 2026-04-24 01:25 | 44.68147 | -64.73126 | 44856 ft | 504 kts | 54° |
| 2026-04-24 01:26 | 44.72025 | -64.64916 | 44845 ft | 504 kts | 54° |
| 2026-04-24 01:26 | 44.75867 | -64.56759 | 44851 ft | 504 kts | 54° |
| 2026-04-24 01:27 | 44.79736 | -64.48524 | 44842 ft | 505 kts | 54° |
| 2026-04-24 01:27 | 44.83605 | -64.40262 | 44836 ft | 505 kts | 54° |
| 2026-04-24 01:28 | 44.87465 | -64.31996 | 44840 ft | 505 kts | 55° |
| 2026-04-24 01:28 | 44.91323 | -64.23712 | 44841 ft | 505 kts | 55° |
| 2026-04-24 01:29 | 44.95170 | -64.15428 | 44843 ft | 505 kts | 55° |
| 2026-04-24 01:29 | 44.99013 | -64.07127 | 44846 ft | 505 kts | 55° |
| 2026-04-24 01:30 | 45.02846 | -63.98823 | 44839 ft | 505 kts | 55° |
| 2026-04-24 01:30 | 45.06674 | -63.90508 | 44837 ft | 504 kts | 55° |
| 2026-04-24 01:31 | 45.10499 | -63.82174 | 44840 ft | 505 kts | 55° |
| 2026-04-24 01:31 | 45.14317 | -63.73831 | 44833 ft | 505 kts | 56° |
| 2026-04-24 01:32 | 45.18131 | -63.65471 | 44837 ft | 505 kts | 56° |
| 2026-04-24 01:32 | 45.21939 | -63.57101 | 44837 ft | 505 kts | 56° |
| 2026-04-24 01:33 | 45.25722 | -63.48760 | 44835 ft | 505 kts | 56° |
| 2026-04-24 01:33 | 45.29517 | -63.40371 | 44835 ft | 505 kts | 56° |
| 2026-04-24 01:34 | 45.33308 | -63.31963 | 44835 ft | 505 kts | 56° |
| 2026-04-24 01:34 | 45.37094 | -63.23541 | 44835 ft | 505 kts | 56° |
| 2026-04-24 01:35 | 45.40873 | -63.15111 | 44836 ft | 505 kts | 56° |
| 2026-04-24 01:35 | 45.44640 | -63.06682 | 44833 ft | 505 kts | 56° |
| 2026-04-24 01:36 | 45.48402 | -62.98240 | 44836 ft | 505 kts | 56° |
| 2026-04-24 01:36 | 45.52165 | -62.89769 | 44830 ft | 505 kts | 57° |
| 2026-04-24 01:37 | 45.53409 | -62.86963 | 44832 ft | 505 kts | 57° |
| 2026-04-24 01:39 | 45.58218 | -62.76091 | 44826 ft | 504 kts | 57° |
| 2026-04-24 01:40 | 45.61957 | -62.67608 | 44815 ft | 505 kts | 57° |
| 2026-04-24 01:40 | 45.65701 | -62.59088 | 44822 ft | 505 kts | 57° |
| 2026-04-24 01:41 | 45.69053 | -62.51440 | 44827 ft | 504 kts | 57° |
| 2026-04-24 01:41 | 45.72832 | -62.42789 | 44837 ft | 504 kts | 57° |
| 2026-04-24 01:42 | 45.76547 | -62.34262 | 44827 ft | 504 kts | 57° |
| 2026-04-24 01:42 | 45.80228 | -62.25784 | 44826 ft | 504 kts | 57° |
| 2026-04-24 01:43 | 45.83927 | -62.17243 | 44838 ft | 504 kts | 57° |
| 2026-04-24 01:43 | 45.87620 | -62.08686 | 44837 ft | 505 kts | 58° |
| 2026-04-24 01:44 | 45.91313 | -62.00104 | 44834 ft | 505 kts | 58° |
| 2026-04-24 01:44 | 45.94996 | -61.91519 | 44827 ft | 505 kts | 58° |
| 2026-04-24 01:45 | 45.98668 | -61.82933 | 44833 ft | 503 kts | 58° |
| 2026-04-24 01:45 | 46.02328 | -61.74349 | 44831 ft | 504 kts | 58° |
| 2026-04-24 01:46 | 46.05984 | -61.65747 | 44832 ft | 504 kts | 58° |
| 2026-04-24 01:46 | 46.09638 | -61.57124 | 44829 ft | 504 kts | 58° |
| 2026-04-24 01:47 | 46.13276 | -61.48513 | 44830 ft | 502 kts | 58° |
| 2026-04-24 01:47 | 46.16904 | -61.39897 | 44831 ft | 503 kts | 58° |
| 2026-04-24 01:48 | 46.20504 | -61.31321 | 44837 ft | 503 kts | 58° |
| 2026-04-24 01:48 | 46.24124 | -61.22670 | 44833 ft | 503 kts | 58° |
| 2026-04-24 01:49 | 46.27741 | -61.14003 | 44828 ft | 503 kts | 59° |
| 2026-04-24 01:49 | 46.31345 | -61.05336 | 44828 ft | 503 kts | 59° |
| 2026-04-24 01:50 | 46.34339 | -60.98117 | 44835 ft | 503 kts | 59° |
| 2026-04-24 01:50 | 46.37441 | -60.90617 | 44830 ft | 502 kts | 59° |
| 2026-04-24 01:51 | 46.41018 | -60.81943 | 44842 ft | 501 kts | 59° |
| 2026-04-24 01:51 | 46.44589 | -60.73257 | 44836 ft | 502 kts | 59° |
| 2026-04-24 01:52 | 46.48155 | -60.64555 | 44840 ft | 502 kts | 59° |
| 2026-04-24 01:52 | 46.51715 | -60.55840 | 44857 ft | 501 kts | 59° |
| 2026-04-24 01:53 | 46.55213 | -60.47251 | 44864 ft | 501 kts | 59° |
| 2026-04-24 01:53 | 46.58749 | -60.38539 | 44852 ft | 500 kts | 59° |
| 2026-04-24 01:54 | 46.62282 | -60.29809 | 44850 ft | 500 kts | 59° |
| 2026-04-24 01:54 | 46.65786 | -60.21123 | 44852 ft | 500 kts | 60° |
| 2026-04-24 01:55 | 46.69297 | -60.12391 | 44845 ft | 499 kts | 60° |
| 2026-04-24 01:55 | 46.72799 | -60.03652 | 44837 ft | 500 kts | 60° |
| 2026-04-24 01:56 | 46.76297 | -59.94900 | 44838 ft | 500 kts | 60° |
| 2026-04-24 01:56 | 46.79787 | -59.86134 | 44837 ft | 499 kts | 60° |
| 2026-04-24 01:57 | 46.83269 | -59.77363 | 44839 ft | 499 kts | 60° |
| 2026-04-24 01:57 | 46.86744 | -59.68581 | 44839 ft | 499 kts | 60° |
| 2026-04-24 01:58 | 46.90212 | -59.59789 | 44840 ft | 499 kts | 60° |
| 2026-04-24 01:58 | 46.93672 | -59.50988 | 44840 ft | 499 kts | 60° |
| 2026-04-24 01:59 | 46.97126 | -59.42173 | 44842 ft | 499 kts | 60° |
| 2026-04-24 01:59 | 47.00576 | -59.33340 | 44840 ft | 499 kts | 60° |
| 2026-04-24 02:00 | 47.04016 | -59.24503 | 44845 ft | 499 kts | 60° |
| 2026-04-24 02:00 | 47.07417 | -59.15741 | 44853 ft | 497 kts | 61° |
| 2026-04-24 02:01 | 47.10833 | -59.06909 | 44854 ft | 497 kts | 61° |
| 2026-04-24 02:01 | 47.14242 | -58.98066 | 44854 ft | 498 kts | 61° |
| 2026-04-24 02:02 | 47.17646 | -58.89207 | 44863 ft | 498 kts | 61° |
| 2026-04-24 02:02 | 47.21037 | -58.80354 | 44856 ft | 495 kts | 61° |
| 2026-04-24 02:03 | 47.26084 | -58.67121 | 44861 ft | 497 kts | 61° |
| 2026-04-24 02:03 | 47.29460 | -58.58237 | 44857 ft | 497 kts | 61° |
| 2026-04-24 02:04 | 47.32829 | -58.49337 | 44854 ft | 495 kts | 62° |
| 2026-04-24 02:04 | 47.36178 | -58.40463 | 44852 ft | 495 kts | 62° |
| 2026-04-24 02:05 | 47.39516 | -58.31588 | 44852 ft | 495 kts | 62° |
| 2026-04-24 02:05 | 47.42848 | -58.22699 | 44856 ft | 495 kts | 62° |
| 2026-04-24 02:06 | 47.46174 | -58.13798 | 44848 ft | 493 kts | 62° |
| 2026-04-24 02:06 | 47.49476 | -58.04928 | 44851 ft | 493 kts | 62° |
| 2026-04-24 02:07 | 47.52777 | -57.96037 | 44852 ft | 493 kts | 62° |
| 2026-04-24 02:07 | 47.56049 | -57.87189 | 44856 ft | 493 kts | 62° |
| 2026-04-24 02:08 | 47.59335 | -57.78277 | 44858 ft | 493 kts | 62° |
| 2026-04-24 02:08 | 47.62610 | -57.69362 | 44856 ft | 492 kts | 62° |
| 2026-04-24 02:09 | 47.65879 | -57.60436 | 44862 ft | 492 kts | 62° |
| 2026-04-24 02:09 | 47.69139 | -57.51503 | 44865 ft | 492 kts | 62° |
| 2026-04-24 02:10 | 47.72393 | -57.42557 | 44856 ft | 492 kts | 63° |
| 2026-04-24 02:10 | 47.75629 | -57.33631 | 44859 ft | 491 kts | 63° |
| 2026-04-24 02:11 | 47.78861 | -57.24686 | 44859 ft | 491 kts | 63° |
| 2026-04-24 02:11 | 47.82085 | -57.15729 | 44864 ft | 491 kts | 63° |
| 2026-04-24 02:12 | 47.85309 | -57.06743 | 44858 ft | 491 kts | 63° |
| 2026-04-24 02:12 | 47.88513 | -56.97786 | 44859 ft | 490 kts | 63° |
| 2026-04-24 02:13 | 47.91709 | -56.88816 | 44851 ft | 490 kts | 63° |
| 2026-04-24 02:13 | 47.94889 | -56.79862 | 44843 ft | 491 kts | 63° |
| 2026-04-24 02:14 | 47.98086 | -56.70831 | 44829 ft | 491 kts | 63° |
| 2026-04-24 02:14 | 48.01262 | -56.61827 | 44823 ft | 490 kts | 63° |
| 2026-04-24 02:15 | 48.04429 | -56.52817 | 44821 ft | 490 kts | 63° |
| 2026-04-24 02:15 | 48.07592 | -56.43787 | 44813 ft | 490 kts | 64° |
| 2026-04-24 02:16 | 48.10746 | -56.34752 | 44818 ft | 490 kts | 64° |
| 2026-04-24 02:16 | 48.13867 | -56.25783 | 44810 ft | 488 kts | 64° |
| 2026-04-24 02:17 | 48.17000 | -56.16744 | 44813 ft | 489 kts | 64° |
| 2026-04-24 02:17 | 48.20122 | -56.07708 | 44811 ft | 489 kts | 64° |
| 2026-04-24 02:18 | 48.23239 | -55.98654 | 44819 ft | 489 kts | 64° |
| 2026-04-24 02:18 | 48.26351 | -55.89583 | 44819 ft | 489 kts | 64° |
| 2026-04-24 02:19 | 48.29464 | -55.80476 | 44827 ft | 489 kts | 64° |
| 2026-04-24 02:19 | 48.32564 | -55.71377 | 44819 ft | 489 kts | 64° |
| 2026-04-24 02:20 | 48.35659 | -55.62259 | 44814 ft | 489 kts | 64° |
| 2026-04-24 02:20 | 48.38743 | -55.53140 | 44810 ft | 489 kts | 65° |
| 2026-04-24 02:21 | 48.41820 | -55.44010 | 44812 ft | 489 kts | 65° |
| 2026-04-24 02:21 | 48.44888 | -55.34875 | 44823 ft | 489 kts | 65° |
| 2026-04-24 02:22 | 48.47933 | -55.25777 | 44825 ft | 489 kts | 65° |
| 2026-04-24 02:22 | 48.50990 | -55.16608 | 44822 ft | 489 kts | 65° |
| 2026-04-24 02:23 | 48.54042 | -55.07424 | 44825 ft | 489 kts | 65° |
| 2026-04-24 02:23 | 48.57081 | -54.98244 | 44824 ft | 489 kts | 65° |
| 2026-04-24 02:24 | 48.60117 | -54.89042 | 44819 ft | 489 kts | 65° |
| 2026-04-24 02:24 | 48.63147 | -54.79824 | 44831 ft | 489 kts | 65° |
| 2026-04-24 02:25 | 48.66173 | -54.70584 | 44821 ft | 490 kts | 65° |
| 2026-04-24 02:25 | 48.69172 | -54.61393 | 44822 ft | 490 kts | 65° |
| 2026-04-24 02:26 | 48.72180 | -54.52140 | 44820 ft | 490 kts | 65° |
| 2026-04-24 02:26 | 48.75185 | -54.42865 | 44807 ft | 490 kts | 65° |
| 2026-04-24 02:27 | 48.78185 | -54.33568 | 44843 ft | 491 kts | 66° |
| 2026-04-24 02:27 | 48.81175 | -54.24269 | 44843 ft | 491 kts | 66° |
| 2026-04-24 02:28 | 48.84161 | -54.14948 | 44842 ft | 491 kts | 66° |
| 2026-04-24 02:28 | 48.87139 | -54.05620 | 44842 ft | 491 kts | 66° |
| 2026-04-24 02:29 | 48.90113 | -53.96267 | 44835 ft | 492 kts | 66° |
| 2026-04-24 02:29 | 48.93080 | -53.86901 | 44838 ft | 492 kts | 66° |
| 2026-04-24 02:30 | 48.96042 | -53.77515 | 44840 ft | 492 kts | 66° |
| 2026-04-24 02:30 | 48.98977 | -53.68182 | 44839 ft | 492 kts | 66° |
| 2026-04-24 02:31 | 49.01922 | -53.58779 | 44834 ft | 493 kts | 66° |
| 2026-04-24 02:31 | 49.04866 | -53.49350 | 44836 ft | 493 kts | 66° |
| 2026-04-24 02:32 | 49.07800 | -53.39908 | 44838 ft | 492 kts | 66° |
| 2026-04-24 02:32 | 49.10727 | -53.30459 | 44836 ft | 492 kts | 66° |
| 2026-04-24 02:33 | 49.13644 | -53.21005 | 44844 ft | 492 kts | 66° |
| 2026-04-24 02:33 | 49.16553 | -53.11539 | 44842 ft | 492 kts | 66° |
| 2026-04-24 02:34 | 49.19460 | -53.02044 | 44842 ft | 492 kts | 66° |
| 2026-04-24 02:34 | 49.22354 | -52.92555 | 44842 ft | 492 kts | 66° |
| 2026-04-24 02:35 | 49.25228 | -52.83093 | 44833 ft | 494 kts | 66° |
| 2026-04-24 02:35 | 49.28115 | -52.73557 | 44834 ft | 493 kts | 66° |
| 2026-04-24 02:36 | 49.30995 | -52.64002 | 44833 ft | 493 kts | 67° |
| 2026-04-24 02:36 | 49.33380 | -52.56065 | 44833 ft | 493 kts | 67° |
| 2026-04-24 02:37 | 49.36241 | -52.46505 | 44835 ft | 493 kts | 67° |
| 2026-04-24 02:37 | 49.39093 | -52.36940 | 44828 ft | 492 kts | 67° |
| 2026-04-24 02:38 | 49.41932 | -52.27379 | 44826 ft | 492 kts | 67° |
| 2026-04-24 02:38 | 49.44769 | -52.17792 | 44828 ft | 492 kts | 67° |
| 2026-04-24 02:39 | 49.47575 | -52.08266 | 44826 ft | 492 kts | 67° |
| 2026-04-24 02:39 | 49.50356 | -51.98640 | 44817 ft | 492 kts | 70° |
| 2026-04-24 02:40 | 49.52804 | -51.88813 | 44833 ft | 492 kts | 70° |
| 2026-04-24 02:40 | 49.55278 | -51.78960 | 44838 ft | 494 kts | 70° |
| 2026-04-24 02:41 | 49.57735 | -51.69082 | 44832 ft | 493 kts | 71° |
| 2026-04-24 02:41 | 49.60182 | -51.59204 | 44829 ft | 494 kts | 70° |
| 2026-04-24 02:42 | 49.62623 | -51.49324 | 44826 ft | 491 kts | 70° |
| 2026-04-24 02:42 | 49.65048 | -51.39444 | 44818 ft | 492 kts | 70° |
| 2026-04-24 02:43 | 49.67451 | -51.29625 | 44816 ft | 492 kts | 71° |
| 2026-04-24 02:43 | 49.69860 | -51.19724 | 44815 ft | 492 kts | 71° |
| 2026-04-24 02:44 | 49.72260 | -51.09827 | 44817 ft | 491 kts | 71° |
| 2026-04-24 02:44 | 49.74649 | -50.99923 | 44814 ft | 491 kts | 71° |
| 2026-04-24 02:45 | 49.77029 | -50.90019 | 44814 ft | 491 kts | 71° |
| 2026-04-24 02:45 | 49.79407 | -50.80070 | 44821 ft | 492 kts | 71° |
| 2026-04-24 02:46 | 49.81776 | -50.70121 | 44811 ft | 492 kts | 71° |
| 2026-04-24 02:46 | 49.84120 | -50.60228 | 44802 ft | 492 kts | 71° |
| 2026-04-24 02:47 | 49.86470 | -50.50263 | 44800 ft | 492 kts | 71° |
| 2026-04-24 02:47 | 49.88815 | -50.40277 | 44805 ft | 492 kts | 71° |
| 2026-04-24 02:48 | 49.91147 | -50.30298 | 44800 ft | 492 kts | 71° |
| 2026-04-24 02:48 | 49.93471 | -50.20306 | 44803 ft | 493 kts | 71° |
| 2026-04-24 02:49 | 49.95795 | -50.10267 | 44799 ft | 493 kts | 71° |
| 2026-04-24 02:49 | 49.98107 | -50.00236 | 44795 ft | 493 kts | 71° |
| 2026-04-24 02:50 | 50.00407 | -49.90206 | 44798 ft | 493 kts | 71° |
| 2026-04-24 02:50 | 50.02702 | -49.80152 | 44811 ft | 493 kts | 72° |
| 2026-04-24 02:51 | 50.04973 | -49.70154 | 44798 ft | 494 kts | 71° |
| 2026-04-24 02:51 | 50.07253 | -49.60073 | 44804 ft | 494 kts | 72° |
| 2026-04-24 02:52 | 50.09523 | -49.49987 | 44796 ft | 494 kts | 72° |
| 2026-04-24 02:52 | 50.11786 | -49.39882 | 44803 ft | 494 kts | 72° |
| 2026-04-24 02:53 | 50.14038 | -49.29776 | 44794 ft | 493 kts | 72° |
| 2026-04-24 02:53 | 50.16280 | -49.19669 | 44798 ft | 493 kts | 72° |
| 2026-04-24 02:54 | 50.18516 | -49.09539 | 44793 ft | 494 kts | 72° |
| 2026-04-24 02:54 | 50.20740 | -48.99412 | 44811 ft | 493 kts | 72° |
| 2026-04-24 02:55 | 50.22959 | -48.89260 | 44799 ft | 495 kts | 72° |
| 2026-04-24 02:55 | 50.25170 | -48.79101 | 44795 ft | 493 kts | 72° |
| 2026-04-24 02:56 | 50.27366 | -48.68950 | 44798 ft | 494 kts | 72° |
| 2026-04-24 02:56 | 50.29557 | -48.58781 | 44801 ft | 494 kts | 72° |
| 2026-04-24 02:57 | 50.31737 | -48.48604 | 44803 ft | 494 kts | 73° |
| 2026-04-24 02:57 | 50.33910 | -48.38416 | 44796 ft | 493 kts | 72° |
| 2026-04-24 02:58 | 50.36065 | -48.28254 | 44798 ft | 491 kts | 72° |
| 2026-04-24 02:58 | 50.38197 | -48.18156 | 44796 ft | 492 kts | 72° |
| 2026-04-24 02:59 | 50.40336 | -48.07974 | 44803 ft | 492 kts | 73° |
| 2026-04-24 02:59 | 50.42465 | -47.97785 | 44804 ft | 492 kts | 73° |
| 2026-04-24 03:00 | 50.44590 | -47.87567 | 44816 ft | 492 kts | 73° |
| 2026-04-24 03:00 | 50.46709 | -47.77321 | 44814 ft | 493 kts | 73° |
| 2026-04-24 03:01 | 50.48819 | -47.67075 | 44819 ft | 492 kts | 73° |
| 2026-04-24 03:01 | 50.50918 | -47.56815 | 44819 ft | 493 kts | 74° |
| 2026-04-24 03:02 | 50.52995 | -47.46623 | 44822 ft | 493 kts | 73° |
| 2026-04-24 03:02 | 50.55075 | -47.36355 | 44819 ft | 493 kts | 73° |
| 2026-04-24 03:03 | 50.57146 | -47.26078 | 44819 ft | 492 kts | 73° |
| 2026-04-24 03:03 | 50.59209 | -47.15794 | 44819 ft | 492 kts | 73° |
| 2026-04-24 03:04 | 50.61263 | -47.05492 | 44823 ft | 493 kts | 73° |
| 2026-04-24 03:04 | 50.63307 | -46.95190 | 44810 ft | 493 kts | 74° |
| 2026-04-24 03:05 | 50.65345 | -46.84858 | 44812 ft | 494 kts | 74° |
| 2026-04-24 03:05 | 50.67375 | -46.74524 | 44812 ft | 494 kts | 74° |
| 2026-04-24 03:06 | 50.69381 | -46.64240 | 44814 ft | 493 kts | 74° |
| 2026-04-24 03:06 | 50.71394 | -46.53879 | 44814 ft | 493 kts | 74° |
| 2026-04-24 03:07 | 50.73394 | -46.43520 | 44810 ft | 492 kts | 74° |
| 2026-04-24 03:07 | 50.75386 | -46.33156 | 44810 ft | 493 kts | 75° |
| 2026-04-24 03:08 | 50.78352 | -46.17602 | 44813 ft | 492 kts | 74° |
| 2026-04-24 03:09 | 50.80317 | -46.07232 | 44815 ft | 493 kts | 75° |
| 2026-04-24 03:09 | 50.82258 | -45.96930 | 44816 ft | 492 kts | 75° |
| 2026-04-24 03:10 | 50.84200 | -45.86564 | 44817 ft | 492 kts | 75° |
| 2026-04-24 03:10 | 50.86138 | -45.76168 | 44821 ft | 493 kts | 75° |
| 2026-04-24 03:11 | 50.88068 | -45.65749 | 44821 ft | 493 kts | 75° |
| 2026-04-24 03:11 | 50.89989 | -45.55323 | 44822 ft | 493 kts | 75° |
| 2026-04-24 03:12 | 50.91902 | -45.44890 | 44818 ft | 491 kts | 75° |
| 2026-04-24 03:12 | 50.93797 | -45.34481 | 44819 ft | 492 kts | 75° |
| 2026-04-24 03:13 | 50.95685 | -45.24053 | 44818 ft | 492 kts | 75° |
| 2026-04-24 03:13 | 50.97563 | -45.13629 | 44817 ft | 492 kts | 76° |
| 2026-04-24 03:14 | 50.99420 | -45.03257 | 44813 ft | 491 kts | 75° |
| 2026-04-24 03:14 | 51.01145 | -44.92817 | 44815 ft | 488 kts | 76° |
| 2026-04-24 03:15 | 51.02864 | -44.82358 | 44808 ft | 490 kts | 77° |
| 2026-04-24 03:15 | 51.04525 | -44.71855 | 44811 ft | 490 kts | 77° |
| 2026-04-24 03:16 | 51.06212 | -44.61333 | 44811 ft | 490 kts | 76° |
| 2026-04-24 03:16 | 51.07871 | -44.50803 | 44811 ft | 491 kts | 77° |
| 2026-04-24 03:17 | 51.09530 | -44.40259 | 44805 ft | 492 kts | 77° |
| 2026-04-24 03:17 | 51.11170 | -44.29755 | 44808 ft | 492 kts | 77° |
| 2026-04-24 03:18 | 51.12809 | -44.19183 | 44809 ft | 492 kts | 77° |
| 2026-04-24 03:18 | 51.14439 | -44.08613 | 44796 ft | 491 kts | 77° |
| 2026-04-24 03:19 | 51.16058 | -43.98035 | 44799 ft | 492 kts | 78° |
| 2026-04-24 03:19 | 51.17673 | -43.87419 | 44801 ft | 492 kts | 77° |
| 2026-04-24 03:20 | 51.19280 | -43.76780 | 44793 ft | 494 kts | 77° |
| 2026-04-24 03:20 | 51.20881 | -43.66111 | 44795 ft | 494 kts | 77° |
| 2026-04-24 03:21 | 51.22470 | -43.55448 | 44795 ft | 494 kts | 78° |
| 2026-04-24 03:21 | 51.24049 | -43.44780 | 44793 ft | 494 kts | 78° |
| 2026-04-24 03:22 | 51.25609 | -43.34176 | 44792 ft | 495 kts | 78° |
| 2026-04-24 03:22 | 51.27167 | -43.23500 | 44792 ft | 494 kts | 78° |
| 2026-04-24 03:23 | 51.28717 | -43.12818 | 44791 ft | 494 kts | 78° |
| 2026-04-24 03:23 | 51.30255 | -43.02135 | 44784 ft | 493 kts | 78° |
| 2026-04-24 03:24 | 51.31780 | -42.91470 | 44781 ft | 492 kts | 78° |
| 2026-04-24 03:24 | 51.33295 | -42.80800 | 44778 ft | 493 kts | 78° |
| 2026-04-24 03:25 | 51.34562 | -42.71818 | 44784 ft | 494 kts | 78° |
| 2026-04-24 03:25 | 51.36065 | -42.61092 | 44787 ft | 494 kts | 78° |
| 2026-04-24 03:26 | 51.37551 | -42.50416 | 44780 ft | 494 kts | 78° |
| 2026-04-24 03:26 | 51.39036 | -42.39674 | 44768 ft | 493 kts | 79° |
| 2026-04-24 03:27 | 51.40509 | -42.28924 | 44771 ft | 493 kts | 78° |
| 2026-04-24 03:27 | 51.41973 | -42.18177 | 44771 ft | 494 kts | 78° |
| 2026-04-24 03:28 | 51.43428 | -42.07410 | 44768 ft | 494 kts | 78° |
| 2026-04-24 03:28 | 51.44872 | -41.96644 | 44762 ft | 493 kts | 79° |
| 2026-04-24 03:29 | 51.46299 | -41.85926 | 44765 ft | 492 kts | 79° |
| 2026-04-24 03:29 | 51.47718 | -41.75184 | 44759 ft | 494 kts | 79° |
| 2026-04-24 03:30 | 51.49125 | -41.64464 | 44759 ft | 494 kts | 79° |
| 2026-04-24 03:30 | 51.50528 | -41.53680 | 44752 ft | 494 kts | 79° |
| 2026-04-24 03:31 | 51.51922 | -41.42895 | 44756 ft | 491 kts | 79° |
| 2026-04-24 03:31 | 51.53296 | -41.32166 | 44751 ft | 490 kts | 79° |
| 2026-04-24 03:32 | 51.54659 | -41.21449 | 44744 ft | 489 kts | 79° |
| 2026-04-24 03:32 | 51.56010 | -41.10742 | 44743 ft | 488 kts | 79° |
| 2026-04-24 03:33 | 51.57352 | -41.00030 | 44741 ft | 488 kts | 79° |
| 2026-04-24 03:33 | 51.58674 | -40.89388 | 44740 ft | 487 kts | 79° |
| 2026-04-24 03:34 | 51.59992 | -40.78700 | 44737 ft | 486 kts | 79° |
| 2026-04-24 03:34 | 51.61300 | -40.67987 | 44729 ft | 488 kts | 79° |
| 2026-04-24 03:35 | 51.62605 | -40.57239 | 44731 ft | 489 kts | 79° |
| 2026-04-24 03:35 | 51.63900 | -40.46469 | 44730 ft | 490 kts | 79° |
| 2026-04-24 03:36 | 51.65184 | -40.35710 | 44730 ft | 489 kts | 79° |
| 2026-04-24 03:36 | 51.66458 | -40.24943 | 44733 ft | 489 kts | 79° |
| 2026-04-24 03:37 | 51.67712 | -40.14262 | 44733 ft | 489 kts | 79° |
| 2026-04-24 03:37 | 51.68966 | -40.03487 | 44730 ft | 490 kts | 79° |
| 2026-04-24 03:38 | 51.70209 | -39.92719 | 44724 ft | 490 kts | 79° |
| 2026-04-24 03:38 | 51.71443 | -39.81938 | 44718 ft | 489 kts | 79° |
| 2026-04-24 03:39 | 51.72666 | -39.71155 | 44720 ft | 489 kts | 79° |
| 2026-04-24 03:39 | 51.73881 | -39.60359 | 44718 ft | 490 kts | 80° |
| 2026-04-24 03:40 | 51.75086 | -39.49544 | 44711 ft | 489 kts | 80° |
| 2026-04-24 03:40 | 51.76272 | -39.38810 | 44710 ft | 489 kts | 80° |
| 2026-04-24 03:41 | 51.77458 | -39.27989 | 44708 ft | 490 kts | 80° |
| 2026-04-24 03:41 | 51.78635 | -39.17155 | 44702 ft | 490 kts | 80° |
| 2026-04-24 03:42 | 51.79800 | -39.06325 | 44701 ft | 490 kts | 80° |
| 2026-04-24 03:42 | 51.80957 | -38.95477 | 44708 ft | 490 kts | 81° |
| 2026-04-24 03:43 | 51.82102 | -38.84634 | 44698 ft | 489 kts | 81° |
| 2026-04-24 03:43 | 51.83235 | -38.73817 | 44697 ft | 487 kts | 81° |
| 2026-04-24 03:44 | 51.84348 | -38.63088 | 44694 ft | 487 kts | 81° |
| 2026-04-24 03:44 | 51.85462 | -38.52248 | 44694 ft | 487 kts | 81° |
| 2026-04-24 03:45 | 51.86564 | -38.41418 | 44687 ft | 488 kts | 81° |
| 2026-04-24 03:45 | 51.87659 | -38.30563 | 44692 ft | 488 kts | 81° |
| 2026-04-24 03:46 | 51.88739 | -38.19740 | 44687 ft | 485 kts | 81° |
| 2026-04-24 03:46 | 51.89806 | -38.08953 | 44686 ft | 485 kts | 81° |
| 2026-04-24 03:47 | 51.90863 | -37.98164 | 44688 ft | 484 kts | 81° |
| 2026-04-24 03:47 | 51.91908 | -37.87379 | 44683 ft | 483 kts | 81° |
| 2026-04-24 03:48 | 51.92942 | -37.76610 | 44668 ft | 484 kts | 81° |
| 2026-04-24 03:48 | 51.93963 | -37.65874 | 44670 ft | 485 kts | 81° |
| 2026-04-24 03:49 | 51.94982 | -37.55033 | 44687 ft | 487 kts | 81° |
| 2026-04-24 03:49 | 51.95997 | -37.44134 | 44688 ft | 489 kts | 81° |
| 2026-04-24 03:50 | 51.97005 | -37.33204 | 44675 ft | 489 kts | 82° |
| 2026-04-24 03:50 | 51.98002 | -37.22269 | 44682 ft | 489 kts | 82° |
| 2026-04-24 03:51 | 51.98988 | -37.11336 | 44673 ft | 490 kts | 82° |
| 2026-04-24 03:51 | 51.99984 | -37.00387 | 44663 ft | 489 kts | 80° |
| 2026-04-24 03:52 | 52.01666 | -36.89652 | 44667 ft | 489 kts | 75° |
| 2026-04-24 03:52 | 52.03402 | -36.78957 | 44672 ft | 490 kts | 76° |
| 2026-04-24 03:53 | 52.05087 | -36.68286 | 44667 ft | 490 kts | 75° |
| 2026-04-24 03:53 | 52.06810 | -36.57537 | 44663 ft | 491 kts | 76° |
| 2026-04-24 03:54 | 52.08493 | -36.46771 | 44662 ft | 492 kts | 76° |
| 2026-04-24 03:54 | 52.10188 | -36.36009 | 44662 ft | 493 kts | 76° |
| 2026-04-24 03:55 | 52.11862 | -36.25202 | 44655 ft | 493 kts | 76° |
| 2026-04-24 03:55 | 52.13532 | -36.14428 | 44653 ft | 491 kts | 76° |
| 2026-04-24 03:56 | 52.15183 | -36.03652 | 44664 ft | 490 kts | 76° |
| 2026-04-24 03:56 | 52.16825 | -35.92890 | 44653 ft | 490 kts | 77° |
| 2026-04-24 03:57 | 52.18459 | -35.82098 | 44653 ft | 490 kts | 76° |
| 2026-04-24 03:57 | 52.20072 | -35.71382 | 44644 ft | 487 kts | 77° |
| 2026-04-24 03:58 | 52.21678 | -35.60636 | 44639 ft | 486 kts | 77° |
| 2026-04-24 03:58 | 52.23270 | -35.49906 | 44643 ft | 487 kts | 77° |
| 2026-04-24 03:59 | 52.24738 | -35.39953 | 44638 ft | 486 kts | 77° |
| 2026-04-24 03:59 | 52.26304 | -35.29254 | 44635 ft | 484 kts | 77° |
| 2026-04-24 04:00 | 52.27861 | -35.18549 | 44628 ft | 483 kts | 77° |
| 2026-04-24 04:00 | 52.29405 | -35.07864 | 44629 ft | 483 kts | 77° |
| 2026-04-24 04:01 | 52.30937 | -34.97180 | 44622 ft | 483 kts | 77° |
| 2026-04-24 04:01 | 52.32459 | -34.86495 | 44627 ft | 485 kts | 77° |
| 2026-04-24 04:02 | 52.33977 | -34.75751 | 44628 ft | 486 kts | 77° |
| 2026-04-24 04:02 | 52.35487 | -34.65010 | 44631 ft | 485 kts | 77° |
| 2026-04-24 04:03 | 52.36976 | -34.54325 | 44630 ft | 484 kts | 78° |
| 2026-04-24 04:03 | 52.38464 | -34.43583 | 44625 ft | 484 kts | 78° |
| 2026-04-24 04:04 | 52.39941 | -34.32837 | 44621 ft | 484 kts | 78° |
| 2026-04-24 04:04 | 52.41406 | -34.22096 | 44619 ft | 483 kts | 78° |
| 2026-04-24 04:05 | 52.42859 | -34.11365 | 44619 ft | 481 kts | 78° |
| 2026-04-24 04:05 | 52.44298 | -34.00663 | 44611 ft | 480 kts | 78° |
| 2026-04-24 04:06 | 52.45728 | -33.89955 | 44606 ft | 480 kts | 78° |
| 2026-04-24 04:06 | 52.47146 | -33.79252 | 44607 ft | 479 kts | 78° |
| 2026-04-24 04:07 | 52.48553 | -33.68543 | 44608 ft | 478 kts | 78° |
| 2026-04-24 04:07 | 52.49937 | -33.57941 | 44606 ft | 478 kts | 79° |
| 2026-04-24 04:08 | 52.51321 | -33.47254 | 44605 ft | 477 kts | 79° |
| 2026-04-24 04:08 | 52.52694 | -33.36572 | 44596 ft | 477 kts | 79° |
| 2026-04-24 04:09 | 52.54057 | -33.25889 | 44599 ft | 477 kts | 79° |
| 2026-04-24 04:09 | 52.55408 | -33.15216 | 44595 ft | 475 kts | 79° |
| 2026-04-24 04:10 | 52.56744 | -33.04584 | 44594 ft | 473 kts | 79° |
| 2026-04-24 04:10 | 52.58067 | -32.93966 | 44592 ft | 473 kts | 79° |
| 2026-04-24 04:11 | 52.59809 | -32.79865 | 44574 ft | 472 kts | 79° |
| 2026-04-24 04:11 | 52.61103 | -32.69282 | 44582 ft | 473 kts | 79° |
| 2026-04-24 04:12 | 52.62391 | -32.58684 | 44585 ft | 472 kts | 79° |
| 2026-04-24 04:12 | 52.63665 | -32.48106 | 44586 ft | 471 kts | 79° |
| 2026-04-24 04:13 | 52.64929 | -32.37535 | 44586 ft | 471 kts | 79° |
| 2026-04-24 04:13 | 52.66183 | -32.26947 | 44586 ft | 471 kts | 79° |
| 2026-04-24 04:14 | 52.67426 | -32.16379 | 44569 ft | 470 kts | 80° |
| 2026-04-24 04:14 | 52.68649 | -32.05894 | 44568 ft | 469 kts | 80° |
| 2026-04-24 04:15 | 52.69871 | -31.95321 | 44567 ft | 470 kts | 80° |
| 2026-04-24 04:15 | 52.71085 | -31.84743 | 44567 ft | 471 kts | 80° |
| 2026-04-24 04:16 | 52.72293 | -31.74127 | 44574 ft | 473 kts | 80° |
| 2026-04-24 04:16 | 52.73497 | -31.63452 | 44581 ft | 473 kts | 80° |
| 2026-04-24 04:17 | 52.74688 | -31.52807 | 44567 ft | 471 kts | 81° |
| 2026-04-24 04:17 | 52.75866 | -31.42191 | 44566 ft | 471 kts | 81° |
| 2026-04-24 04:18 | 52.77034 | -31.31564 | 44563 ft | 471 kts | 81° |
| 2026-04-24 04:18 | 52.78184 | -31.21010 | 44569 ft | 470 kts | 81° |
| 2026-04-24 04:19 | 52.79329 | -31.10421 | 44570 ft | 468 kts | 81° |
| 2026-04-24 04:19 | 52.80461 | -30.99847 | 44567 ft | 468 kts | 81° |
| 2026-04-24 04:20 | 52.81585 | -30.89265 | 44552 ft | 468 kts | 82° |
| 2026-04-24 04:20 | 52.82694 | -30.78716 | 44559 ft | 467 kts | 81° |
| 2026-04-24 04:21 | 52.83797 | -30.68144 | 44554 ft | 468 kts | 82° |
| 2026-04-24 04:21 | 52.84889 | -30.57576 | 44563 ft | 465 kts | 81° |
| 2026-04-24 04:22 | 52.85966 | -30.47058 | 44560 ft | 463 kts | 82° |
| 2026-04-24 04:22 | 52.87033 | -30.36553 | 44561 ft | 462 kts | 82° |
| 2026-04-24 04:23 | 52.88086 | -30.26077 | 44554 ft | 459 kts | 82° |
| 2026-04-24 04:23 | 52.89125 | -30.15627 | 44559 ft | 459 kts | 82° |
| 2026-04-24 04:24 | 52.90155 | -30.05215 | 44560 ft | 456 kts | 82° |
| 2026-04-24 04:24 | 52.91170 | -29.94815 | 44566 ft | 457 kts | 83° |
| 2026-04-24 04:25 | 52.92170 | -29.84499 | 44566 ft | 455 kts | 83° |
| 2026-04-24 04:25 | 52.93163 | -29.74143 | 44574 ft | 454 kts | 82° |
| 2026-04-24 04:26 | 52.94148 | -29.63776 | 44576 ft | 455 kts | 82° |
| 2026-04-24 04:26 | 52.95122 | -29.53432 | 44583 ft | 452 kts | 83° |
| 2026-04-24 04:27 | 52.96083 | -29.43114 | 44578 ft | 452 kts | 84° |
| 2026-04-24 04:27 | 52.97035 | -29.32813 | 44590 ft | 451 kts | 83° |
| 2026-04-24 04:28 | 52.97972 | -29.22548 | 44586 ft | 451 kts | 84° |
| 2026-04-24 04:28 | 52.98902 | -29.12272 | 44601 ft | 450 kts | 83° |
| 2026-04-24 04:29 | 52.99822 | -29.02004 | 44592 ft | 452 kts | 84° |
| 2026-04-24 04:29 | 53.00279 | -28.91713 | 44609 ft | 451 kts | 89° |
| 2026-04-24 04:30 | 53.00609 | -28.81347 | 44613 ft | 448 kts | 89° |
| 2026-04-24 04:30 | 53.00943 | -28.71005 | 44630 ft | 449 kts | 89° |
| 2026-04-24 04:31 | 53.01257 | -28.60581 | 44630 ft | 450 kts | 88° |
| 2026-04-24 04:31 | 53.01573 | -28.50172 | 44629 ft | 451 kts | 90° |
| 2026-04-24 04:32 | 53.01869 | -28.39770 | 44628 ft | 452 kts | 90° |
| 2026-04-24 04:32 | 53.02166 | -28.29353 | 44641 ft | 454 kts | 90° |
| 2026-04-24 04:33 | 53.02448 | -28.18919 | 44639 ft | 452 kts | 89° |
| 2026-04-24 04:33 | 53.02724 | -28.08476 | 44654 ft | 452 kts | 89° |
| 2026-04-24 04:34 | 53.02987 | -27.98089 | 44647 ft | 451 kts | 89° |
| 2026-04-24 04:34 | 53.03246 | -27.87614 | 44668 ft | 455 kts | 91° |
| 2026-04-24 04:35 | 53.03495 | -27.77057 | 44673 ft | 459 kts | 91° |
| 2026-04-24 04:35 | 53.03736 | -27.66501 | 44673 ft | 458 kts | 90° |
| 2026-04-24 04:36 | 53.03966 | -27.55941 | 44670 ft | 460 kts | 91° |
| 2026-04-24 04:36 | 53.04191 | -27.45320 | 44677 ft | 459 kts | 90° |
| 2026-04-24 04:37 | 53.04406 | -27.34666 | 44694 ft | 461 kts | 91° |
| 2026-04-24 04:37 | 53.04610 | -27.23963 | 44701 ft | 463 kts | 90° |
| 2026-04-24 04:38 | 53.04808 | -27.13231 | 44706 ft | 466 kts | 91° |
| 2026-04-24 04:38 | 53.04996 | -27.02448 | 44706 ft | 468 kts | 91° |
| 2026-04-24 04:39 | 53.05173 | -26.91709 | 44719 ft | 470 kts | 91° |
| 2026-04-24 04:39 | 53.05343 | -26.80899 | 44711 ft | 469 kts | 91° |
| 2026-04-24 04:40 | 53.05503 | -26.70068 | 44729 ft | 467 kts | 91° |
| 2026-04-24 04:40 | 53.05651 | -26.59224 | 44724 ft | 468 kts | 91° |
| 2026-04-24 04:41 | 53.05792 | -26.48407 | 44730 ft | 467 kts | 91° |
| 2026-04-24 04:41 | 53.05920 | -26.37598 | 44727 ft | 468 kts | 91° |
| 2026-04-24 04:42 | 53.06041 | -26.26795 | 44733 ft | 468 kts | 91° |
| 2026-04-24 04:42 | 53.06150 | -26.15982 | 44733 ft | 469 kts | 91° |
| 2026-04-24 04:43 | 53.06250 | -26.05228 | 44750 ft | 468 kts | 91° |
| 2026-04-24 04:43 | 53.06341 | -25.94400 | 44750 ft | 468 kts | 92° |
| 2026-04-24 04:44 | 53.06422 | -25.83527 | 44762 ft | 470 kts | 92° |
| 2026-04-24 04:44 | 53.06493 | -25.72642 | 44748 ft | 471 kts | 92° |
| 2026-04-24 04:45 | 53.06554 | -25.61742 | 44759 ft | 472 kts | 92° |
| 2026-04-24 04:45 | 53.06606 | -25.50816 | 44760 ft | 474 kts | 92° |
| 2026-04-24 04:46 | 53.06647 | -25.39878 | 44774 ft | 473 kts | 92° |
| 2026-04-24 04:46 | 53.06681 | -25.28931 | 44777 ft | 473 kts | 92° |
| 2026-04-24 04:47 | 53.06700 | -25.17971 | 44776 ft | 473 kts | 92° |
| 2026-04-24 04:47 | 53.06713 | -25.07060 | 44777 ft | 474 kts | 92° |
| 2026-04-24 04:48 | 53.06712 | -24.96079 | 44787 ft | 476 kts | 92° |
| 2026-04-24 04:48 | 53.06706 | -24.85084 | 44787 ft | 476 kts | 93° |
| 2026-04-24 04:49 | 53.06686 | -24.74090 | 44795 ft | 475 kts | 92° |
| 2026-04-24 04:49 | 53.06658 | -24.63122 | 44772 ft | 474 kts | 93° |
| 2026-04-24 04:50 | 53.06618 | -24.52208 | 44798 ft | 474 kts | 93° |
| 2026-04-24 04:50 | 53.06569 | -24.41223 | 44810 ft | 475 kts | 93° |
| 2026-04-24 04:51 | 53.06510 | -24.30235 | 44808 ft | 475 kts | 93° |
| 2026-04-24 04:51 | 53.06441 | -24.19251 | 44819 ft | 476 kts | 93° |
| 2026-04-24 04:52 | 53.06362 | -24.08270 | 44820 ft | 475 kts | 93° |
| 2026-04-24 04:52 | 53.06271 | -23.97284 | 44833 ft | 476 kts | 94° |
| 2026-04-24 04:53 | 53.06172 | -23.86263 | 44832 ft | 475 kts | 94° |
| 2026-04-24 04:53 | 53.06062 | -23.75324 | 44840 ft | 476 kts | 94° |
| 2026-04-24 04:54 | 53.05942 | -23.64326 | 44837 ft | 477 kts | 94° |
| 2026-04-24 04:54 | 53.05813 | -23.53326 | 44853 ft | 477 kts | 94° |
| 2026-04-24 04:55 | 53.05673 | -23.42337 | 44837 ft | 475 kts | 94° |
| 2026-04-24 04:55 | 53.05522 | -23.31345 | 44849 ft | 474 kts | 94° |
| 2026-04-24 04:56 | 53.05361 | -23.20347 | 44848 ft | 475 kts | 94° |
| 2026-04-24 04:56 | 53.05192 | -23.09441 | 44858 ft | 475 kts | 94° |
| 2026-04-24 04:57 | 53.05011 | -22.98466 | 44861 ft | 476 kts | 94° |
| 2026-04-24 04:57 | 53.04821 | -22.87480 | 44873 ft | 476 kts | 94° |
| 2026-04-24 04:58 | 53.04620 | -22.76483 | 44877 ft | 476 kts | 94° |
| 2026-04-24 04:58 | 53.04444 | -22.67343 | 44886 ft | 476 kts | 94° |
| 2026-04-24 04:59 | 53.04225 | -22.56354 | 44886 ft | 476 kts | 94° |
| 2026-04-24 04:59 | 53.03996 | -22.45368 | 44892 ft | 476 kts | 94° |
| 2026-04-24 05:00 | 53.03756 | -22.34375 | 44888 ft | 476 kts | 95° |
| 2026-04-24 05:00 | 53.03505 | -22.23376 | 44899 ft | 475 kts | 95° |
| 2026-04-24 05:01 | 53.03245 | -22.12391 | 44900 ft | 476 kts | 95° |
| 2026-04-24 05:01 | 53.02977 | -22.01473 | 44909 ft | 476 kts | 95° |
| 2026-04-24 05:02 | 53.02696 | -21.90489 | 44908 ft | 476 kts | 95° |
| 2026-04-24 05:02 | 53.02406 | -21.79502 | 44913 ft | 477 kts | 95° |
| 2026-04-24 05:03 | 53.02105 | -21.68502 | 44911 ft | 476 kts | 95° |
| 2026-04-24 05:03 | 53.01792 | -21.57499 | 44918 ft | 478 kts | 95° |
| 2026-04-24 05:04 | 53.01471 | -21.46476 | 44922 ft | 477 kts | 95° |
| 2026-04-24 05:04 | 53.01139 | -21.35473 | 44929 ft | 478 kts | 95° |
| 2026-04-24 05:05 | 53.00797 | -21.24457 | 44927 ft | 477 kts | 95° |
| 2026-04-24 05:05 | 53.00445 | -21.13463 | 44938 ft | 477 kts | 95° |
| 2026-04-24 05:06 | 53.00082 | -21.02454 | 44941 ft | 477 kts | 95° |
| 2026-04-24 05:06 | 53.00242 | -20.91481 | 44948 ft | 480 kts | 89° |
| 2026-04-24 05:07 | 53.00565 | -20.80430 | 44943 ft | 479 kts | 90° |
| 2026-04-24 05:07 | 53.00856 | -20.69366 | 44941 ft | 480 kts | 90° |
| 2026-04-24 05:08 | 53.01157 | -20.58295 | 44935 ft | 480 kts | 90° |
| 2026-04-24 05:08 | 53.01432 | -20.47228 | 44946 ft | 479 kts | 90° |
| 2026-04-24 05:09 | 53.01707 | -20.36160 | 44944 ft | 480 kts | 90° |
| 2026-04-24 05:09 | 53.01965 | -20.25083 | 44959 ft | 480 kts | 90° |
| 2026-04-24 05:10 | 53.02217 | -20.14001 | 44963 ft | 481 kts | 90° |
| 2026-04-24 05:10 | 53.02458 | -20.02899 | 44974 ft | 481 kts | 90° |
| 2026-04-24 05:11 | 53.02688 | -19.91798 | 44977 ft | 481 kts | 90° |
| 2026-04-24 05:11 | 53.02908 | -19.80710 | 44984 ft | 480 kts | 90° |
| 2026-04-24 05:12 | 53.03116 | -19.69683 | 44984 ft | 480 kts | 91° |
| 2026-04-24 05:12 | 53.03315 | -19.58583 | 44988 ft | 481 kts | 91° |
| 2026-04-24 05:13 | 53.03595 | -19.41927 | 44992 ft | 481 kts | 91° |
| 2026-04-24 05:14 | 53.03769 | -19.30825 | 44991 ft | 481 kts | 91° |
| 2026-04-24 05:14 | 53.03932 | -19.19719 | 45000 ft | 480 kts | 91° |
| 2026-04-24 05:15 | 53.04085 | -19.08612 | 45004 ft | 481 kts | 91° |
| 2026-04-24 05:15 | 53.04228 | -18.97490 | 45012 ft | 481 kts | 91° |
| 2026-04-24 05:16 | 53.04360 | -18.86377 | 45011 ft | 481 kts | 91° |
| 2026-04-24 05:16 | 53.04481 | -18.75343 | 45018 ft | 481 kts | 91° |
| 2026-04-24 05:17 | 53.04593 | -18.64226 | 45019 ft | 481 kts | 91° |
| 2026-04-24 05:17 | 53.04693 | -18.53092 | 45021 ft | 482 kts | 92° |
| 2026-04-24 05:18 | 53.04786 | -18.41946 | 45027 ft | 482 kts | 92° |
| 2026-04-24 05:18 | 53.04866 | -18.30806 | 45033 ft | 482 kts | 92° |
| 2026-04-24 05:19 | 53.04936 | -18.19665 | 45034 ft | 482 kts | 92° |
| 2026-04-24 05:19 | 53.04996 | -18.08535 | 45043 ft | 482 kts | 92° |
| 2026-04-24 05:20 | 53.05044 | -17.97441 | 45030 ft | 484 kts | 92° |
| 2026-04-24 05:20 | 53.05085 | -17.86263 | 45037 ft | 483 kts | 92° |
| 2026-04-24 05:21 | 53.05113 | -17.75082 | 45048 ft | 483 kts | 92° |
| 2026-04-24 05:21 | 53.05132 | -17.63917 | 45044 ft | 483 kts | 92° |
| 2026-04-24 05:22 | 53.05139 | -17.52745 | 45034 ft | 483 kts | 93° |
| 2026-04-24 05:22 | 53.05136 | -17.41545 | 45054 ft | 485 kts | 93° |
| 2026-04-24 05:23 | 53.05124 | -17.30345 | 45068 ft | 484 kts | 93° |
| 2026-04-24 05:23 | 53.05100 | -17.19140 | 45065 ft | 484 kts | 93° |
| 2026-04-24 05:24 | 53.05066 | -17.07936 | 45064 ft | 484 kts | 93° |
| 2026-04-24 05:24 | 53.05021 | -16.96747 | 45068 ft | 485 kts | 93° |
| 2026-04-24 05:25 | 53.04966 | -16.85597 | 45077 ft | 485 kts | 93° |
| 2026-04-24 05:25 | 53.04900 | -16.74400 | 45076 ft | 484 kts | 93° |
| 2026-04-24 05:26 | 53.04824 | -16.63187 | 45082 ft | 484 kts | 94° |
| 2026-04-24 05:26 | 53.04737 | -16.51979 | 45083 ft | 484 kts | 94° |
| 2026-04-24 05:27 | 53.04640 | -16.40788 | 45080 ft | 484 kts | 94° |
| 2026-04-24 05:27 | 53.04532 | -16.29598 | 45080 ft | 484 kts | 94° |
| 2026-04-24 05:28 | 53.04415 | -16.18486 | 45086 ft | 484 kts | 94° |
| 2026-04-24 05:28 | 53.04286 | -16.07298 | 45082 ft | 484 kts | 94° |
| 2026-04-24 05:29 | 53.04147 | -15.96122 | 45091 ft | 484 kts | 94° |
| 2026-04-24 05:29 | 53.03997 | -15.84944 | 45092 ft | 484 kts | 94° |
| 2026-04-24 05:30 | 53.03837 | -15.73762 | 45097 ft | 484 kts | 94° |
| 2026-04-24 05:30 | 53.03667 | -15.62585 | 45097 ft | 484 kts | 94° |
| 2026-04-24 05:31 | 53.03486 | -15.51417 | 45095 ft | 484 kts | 94° |
| 2026-04-24 05:31 | 53.03295 | -15.40245 | 45087 ft | 484 kts | 94° |
| 2026-04-24 05:32 | 53.03093 | -15.29081 | 45103 ft | 483 kts | 94° |
| 2026-04-24 05:32 | 53.02881 | -15.17925 | 45108 ft | 483 kts | 95° |
| 2026-04-24 05:33 | 53.02661 | -15.06843 | 45105 ft | 482 kts | 95° |
| 2026-04-24 05:33 | 53.02427 | -14.95716 | 45108 ft | 482 kts | 95° |
| 2026-04-24 05:34 | 53.02060 | -14.79015 | 45108 ft | 482 kts | 95° |
| 2026-04-24 05:34 | 53.01801 | -14.67899 | 45114 ft | 482 kts | 95° |
| 2026-04-24 05:35 | 53.01533 | -14.56787 | 45116 ft | 482 kts | 95° |
| 2026-04-24 05:35 | 53.01254 | -14.45658 | 45123 ft | 482 kts | 95° |
| 2026-04-24 05:36 | 53.00965 | -14.34547 | 45110 ft | 482 kts | 95° |
| 2026-04-24 05:36 | 53.00665 | -14.23457 | 45124 ft | 483 kts | 95° |
| 2026-04-24 05:37 | 53.00355 | -14.12306 | 45127 ft | 483 kts | 96° |
| 2026-04-24 05:37 | 53.00033 | -14.01152 | 45127 ft | 483 kts | 96° |
| 2026-04-24 05:38 | 52.99718 | -13.90015 | 45131 ft | 483 kts | 95° |
| 2026-04-24 05:38 | 52.99400 | -13.78870 | 45128 ft | 485 kts | 96° |
| 2026-04-24 05:39 | 52.99064 | -13.67679 | 45139 ft | 485 kts | 96° |
| 2026-04-24 05:39 | 52.98721 | -13.56483 | 45137 ft | 485 kts | 96° |
| 2026-04-24 05:40 | 52.98365 | -13.45299 | 45141 ft | 485 kts | 96° |
| 2026-04-24 05:40 | 52.98005 | -13.34161 | 45140 ft | 481 kts | 96° |
| 2026-04-24 05:41 | 52.97627 | -13.23032 | 45154 ft | 487 kts | 96° |
| 2026-04-24 05:41 | 52.97243 | -13.11829 | 45160 ft | 486 kts | 96° |
| 2026-04-24 05:42 | 52.96843 | -13.00624 | 45156 ft | 486 kts | 96° |
| 2026-04-24 05:42 | 52.96439 | -12.89487 | 45156 ft | 486 kts | 96° |
| 2026-04-24 05:43 | 52.96020 | -12.78293 | 45164 ft | 486 kts | 96° |
| 2026-04-24 05:43 | 52.95590 | -12.67054 | 45160 ft | 489 kts | 96° |
| 2026-04-24 05:44 | 52.95147 | -12.55776 | 45163 ft | 489 kts | 96° |
| 2026-04-24 05:44 | 52.94694 | -12.44515 | 45166 ft | 489 kts | 96° |
| 2026-04-24 05:45 | 52.94234 | -12.33338 | 45171 ft | 489 kts | 96° |
| 2026-04-24 05:45 | 52.93760 | -12.22085 | 45151 ft | 489 kts | 97° |
| 2026-04-24 05:46 | 52.93278 | -12.10869 | 45179 ft | 488 kts | 97° |
| 2026-04-24 05:46 | 52.92867 | -12.01547 | 45178 ft | 488 kts | 96° |
| 2026-04-24 05:47 | 52.92366 | -11.90343 | 45179 ft | 488 kts | 97° |
| 2026-04-24 05:47 | 52.91852 | -11.79129 | 45187 ft | 487 kts | 96° |
| 2026-04-24 05:48 | 52.91329 | -11.67922 | 45178 ft | 486 kts | 97° |
| 2026-04-24 05:48 | 52.90798 | -11.56774 | 45185 ft | 486 kts | 97° |
| 2026-04-24 05:49 | 52.90257 | -11.45635 | 45184 ft | 486 kts | 97° |
| 2026-04-24 05:49 | 52.89705 | -11.34492 | 45188 ft | 485 kts | 98° |
| 2026-04-24 05:50 | 52.89142 | -11.23347 | 45189 ft | 484 kts | 97° |
| 2026-04-24 05:50 | 52.88567 | -11.12205 | 45193 ft | 484 kts | 97° |
| 2026-04-24 05:51 | 52.87987 | -11.01108 | 45194 ft | 485 kts | 97° |
| 2026-04-24 05:51 | 52.87396 | -10.90025 | 45202 ft | 483 kts | 96° |
| 2026-04-24 05:52 | 52.86794 | -10.78933 | 45204 ft | 483 kts | 98° |
| 2026-04-24 05:52 | 52.86182 | -10.67887 | 45209 ft | 484 kts | 98° |
| 2026-04-24 05:53 | 52.85561 | -10.56802 | 45213 ft | 484 kts | 97° |
| 2026-04-24 05:53 | 52.84927 | -10.45730 | 45220 ft | 484 kts | 97° |
| 2026-04-24 05:54 | 52.84286 | -10.34653 | 45224 ft | 483 kts | 98° |
| 2026-04-24 05:54 | 52.83630 | -10.23576 | 45226 ft | 482 kts | 98° |
| 2026-04-24 05:55 | 52.82968 | -10.12531 | 45210 ft | 483 kts | 97° |
| 2026-04-24 05:55 | 52.82293 | -10.01470 | 45220 ft | 487 kts | 98° |
| 2026-04-24 05:56 | 52.81608 | -9.90373 | 45230 ft | 486 kts | 97° |
| 2026-04-24 05:56 | 52.80912 | -9.79303 | 45231 ft | 484 kts | 98° |
| 2026-04-24 05:57 | 52.80047 | -9.68247 | 45221 ft | 484 kts | 102° |
| 2026-04-24 05:57 | 52.78871 | -9.57313 | 45219 ft | 484 kts | 101° |
| 2026-04-24 05:58 | 52.77745 | -9.46336 | 45217 ft | 484 kts | 101° |
| 2026-04-24 05:58 | 52.76574 | -9.35370 | 45226 ft | 484 kts | 102° |
| 2026-04-24 05:59 | 52.75409 | -9.24401 | 45230 ft | 485 kts | 102° |
| 2026-04-24 05:59 | 52.74229 | -9.13456 | 45229 ft | 485 kts | 101° |
| 2026-04-24 06:00 | 52.73038 | -9.02493 | 45240 ft | 487 kts | 101° |
| 2026-04-24 06:00 | 52.71832 | -8.91495 | 45239 ft | 487 kts | 102° |
| 2026-04-24 06:01 | 52.70625 | -8.80587 | 45243 ft | 487 kts | 102° |
| 2026-04-24 06:01 | 52.69402 | -8.69619 | 45240 ft | 487 kts | 102° |
| 2026-04-24 06:02 | 52.68166 | -8.58643 | 45240 ft | 486 kts | 102° |
| 2026-04-24 06:02 | 52.66926 | -8.47714 | 45236 ft | 486 kts | 103° |
| 2026-04-24 06:03 | 52.65677 | -8.36810 | 45248 ft | 484 kts | 103° |
| 2026-04-24 06:03 | 52.64416 | -8.25911 | 45248 ft | 484 kts | 103° |
| 2026-04-24 06:04 | 52.63149 | -8.15023 | 45260 ft | 485 kts | 102° |
| 2026-04-24 06:04 | 52.61871 | -8.04156 | 45259 ft | 484 kts | 103° |
| 2026-04-24 06:05 | 52.60584 | -7.93290 | 45262 ft | 487 kts | 102° |
| 2026-04-24 06:05 | 52.59277 | -7.82358 | 45262 ft | 487 kts | 102° |
| 2026-04-24 06:06 | 52.57961 | -7.71427 | 45273 ft | 487 kts | 102° |
| 2026-04-24 06:06 | 52.56634 | -7.60510 | 45281 ft | 487 kts | 102° |
| 2026-04-24 06:07 | 52.55299 | -7.49603 | 45269 ft | 487 kts | 102° |
| 2026-04-24 06:07 | 52.53951 | -7.38690 | 45284 ft | 487 kts | 102° |
| 2026-04-24 06:08 | 52.52593 | -7.27775 | 45285 ft | 487 kts | 102° |
| 2026-04-24 06:08 | 52.51223 | -7.16857 | 45291 ft | 487 kts | 102° |
| 2026-04-24 06:09 | 52.49846 | -7.05964 | 45291 ft | 487 kts | 103° |
| 2026-04-24 06:09 | 52.48459 | -6.95078 | 45293 ft | 487 kts | 103° |
| 2026-04-24 06:10 | 52.47070 | -6.84261 | 45299 ft | 487 kts | 103° |
| 2026-04-24 06:11 | 52.44955 | -6.67962 | 45300 ft | 487 kts | 103° |
| 2026-04-24 06:11 | 52.43534 | -6.57098 | 45300 ft | 488 kts | 103° |
| 2026-04-24 06:12 | 52.42101 | -6.46244 | 45294 ft | 487 kts | 103° |
| 2026-04-24 06:12 | 52.40659 | -6.35389 | 45302 ft | 488 kts | 103° |
| 2026-04-24 06:13 | 52.39203 | -6.24523 | 45300 ft | 488 kts | 103° |
| 2026-04-24 06:13 | 52.37739 | -6.13677 | 45306 ft | 488 kts | 103° |
| 2026-04-24 06:14 | 52.36267 | -6.02839 | 45301 ft | 488 kts | 103° |
| 2026-04-24 06:14 | 52.34800 | -5.92115 | 45292 ft | 466 kts | 103° |
| 2026-04-24 06:14 | 52.34105 | -5.87044 | 44756 ft | 453 kts | 104° |
| 2026-04-24 06:15 | 52.33409 | -5.82018 | 43562 ft | 453 kts | 103° |
| 2026-04-24 06:15 | 52.32709 | -5.76991 | 42366 ft | 454 kts | 103° |
| 2026-04-24 06:15 | 52.32010 | -5.71963 | 41216 ft | 454 kts | 103° |
| 2026-04-24 06:15 | 52.31319 | -5.66996 | 40073 ft | 454 kts | 103° |
| 2026-04-24 06:16 | 52.30616 | -5.61976 | 38943 ft | 453 kts | 103° |
| 2026-04-24 06:16 | 52.29910 | -5.56956 | 37406 ft | 454 kts | 103° |
| 2026-04-24 06:16 | 52.29188 | -5.51895 | 35753 ft | 459 kts | 103° |
| 2026-04-24 06:16 | 52.28439 | -5.46801 | 34092 ft | 463 kts | 103° |
| 2026-04-24 06:17 | 52.27682 | -5.41678 | 32158 ft | 466 kts | 103° |
| 2026-04-24 06:17 | 52.26915 | -5.36417 | 30819 ft | 479 kts | 103° |
| 2026-04-24 06:17 | 52.26151 | -5.31182 | 30392 ft | 471 kts | 103° |
| 2026-04-24 06:17 | 52.25382 | -5.25978 | 29904 ft | 469 kts | 103° |
| 2026-04-24 06:18 | 52.24613 | -5.20808 | 29422 ft | 465 kts | 102° |
| 2026-04-24 06:18 | 52.23857 | -5.15709 | 28935 ft | 458 kts | 103° |
| 2026-04-24 06:18 | 52.23109 | -5.10665 | 28452 ft | 456 kts | 102° |
| 2026-04-24 06:18 | 52.22361 | -5.05659 | 27973 ft | 452 kts | 103° |
| 2026-04-24 06:19 | 52.21628 | -5.00774 | 27511 ft | 447 kts | 103° |
| 2026-04-24 06:19 | 52.20892 | -4.95876 | 27055 ft | 443 kts | 103° |
| 2026-04-24 06:19 | 52.20160 | -4.91021 | 26602 ft | 438 kts | 102° |
| 2026-04-24 06:19 | 52.19431 | -4.86203 | 26151 ft | 434 kts | 102° |
| 2026-04-24 06:20 | 52.18709 | -4.81443 | 25708 ft | 430 kts | 102° |
| 2026-04-24 06:20 | 52.17984 | -4.76676 | 25274 ft | 432 kts | 102° |
| 2026-04-24 06:20 | 52.17264 | -4.71956 | 24850 ft | 428 kts | 102° |
| 2026-04-24 06:20 | 52.16547 | -4.67277 | 24430 ft | 425 kts | 102° |
| 2026-04-24 06:21 | 52.15833 | -4.62618 | 24020 ft | 421 kts | 102° |
| 2026-04-24 06:21 | 52.15133 | -4.58071 | 23547 ft | 417 kts | 102° |
| 2026-04-24 06:21 | 52.14432 | -4.53521 | 23062 ft | 412 kts | 102° |
| 2026-04-24 06:21 | 52.13737 | -4.49035 | 22756 ft | 400 kts | 102° |
| 2026-04-24 06:22 | 52.13049 | -4.44606 | 22610 ft | 403 kts | 103° |
| 2026-04-24 06:22 | 52.12362 | -4.40187 | 22418 ft | 396 kts | 103° |
| 2026-04-24 06:22 | 52.11682 | -4.35832 | 22328 ft | 396 kts | 103° |
| 2026-04-24 06:22 | 52.11000 | -4.31474 | 22330 ft | 398 kts | 103° |
| 2026-04-24 06:23 | 52.10314 | -4.27113 | 22338 ft | 398 kts | 103° |
| 2026-04-24 06:23 | 52.09628 | -4.22749 | 22334 ft | 398 kts | 103° |
| 2026-04-24 06:23 | 52.08940 | -4.18386 | 22335 ft | 398 kts | 103° |
| 2026-04-24 06:23 | 52.08249 | -4.14021 | 22335 ft | 398 kts | 103° |
| 2026-04-24 06:24 | 52.07558 | -4.09660 | 22336 ft | 399 kts | 103° |
| 2026-04-24 06:24 | 52.06866 | -4.05305 | 22337 ft | 398 kts | 103° |
| 2026-04-24 06:24 | 52.06170 | -4.00943 | 22337 ft | 398 kts | 103° |
| 2026-04-24 06:24 | 52.05473 | -3.96580 | 22333 ft | 398 kts | 103° |
| 2026-04-24 06:25 | 52.04776 | -3.92228 | 22336 ft | 398 kts | 103° |
| 2026-04-24 06:25 | 52.04081 | -3.87894 | 22349 ft | 396 kts | 104° |
| 2026-04-24 06:25 | 52.03392 | -3.83619 | 22349 ft | 396 kts | 104° |
| 2026-04-24 06:25 | 52.02692 | -3.79292 | 22348 ft | 396 kts | 104° |
| 2026-04-24 06:26 | 52.01992 | -3.74960 | 22343 ft | 396 kts | 104° |
| 2026-04-24 06:26 | 52.01290 | -3.70632 | 22356 ft | 396 kts | 104° |
| 2026-04-24 06:26 | 52.00586 | -3.66303 | 22357 ft | 396 kts | 104° |
| 2026-04-24 06:26 | 51.99881 | -3.61984 | 22356 ft | 396 kts | 104° |
| 2026-04-24 06:27 | 51.99174 | -3.57662 | 22358 ft | 396 kts | 105° |
| 2026-04-24 06:27 | 51.98462 | -3.53310 | 22356 ft | 396 kts | 104° |
| 2026-04-24 06:27 | 51.97752 | -3.48974 | 22367 ft | 399 kts | 104° |
| 2026-04-24 06:27 | 51.97034 | -3.44632 | 22367 ft | 399 kts | 105° |
| 2026-04-24 06:28 | 51.96315 | -3.40287 | 22368 ft | 392 kts | 105° |
| 2026-04-24 06:28 | 51.95608 | -3.36006 | 22370 ft | 392 kts | 105° |
| 2026-04-24 06:28 | 51.94896 | -3.31723 | 22380 ft | 393 kts | 105° |
| 2026-04-24 06:28 | 51.94190 | -3.27502 | 22384 ft | 394 kts | 105° |
| 2026-04-24 06:29 | 51.93475 | -3.23212 | 22384 ft | 394 kts | 105° |
| 2026-04-24 06:29 | 51.92782 | -3.18922 | 22378 ft | 393 kts | 103° |
| 2026-04-24 06:29 | 51.92360 | -3.14660 | 21339 ft | 376 kts | 97° |
| 2026-04-24 06:29 | 51.92160 | -3.10390 | 19550 ft | 382 kts | 94° |
| 2026-04-24 06:30 | 51.92031 | -3.06159 | 18252 ft | 370 kts | 95° |
| 2026-04-24 06:30 | 51.91761 | -3.02055 | 16811 ft | 361 kts | 98° |
| 2026-04-24 06:30 | 51.91401 | -2.98065 | 15458 ft | 353 kts | 98° |
| 2026-04-24 06:30 | 51.91108 | -2.94165 | 14168 ft | 345 kts | 96° |
| 2026-04-24 06:31 | 51.90875 | -2.90332 | 12762 ft | 338 kts | 96° |
| 2026-04-24 06:31 | 51.90624 | -2.86589 | 11428 ft | 332 kts | 97° |
| 2026-04-24 06:31 | 51.90344 | -2.82890 | 10614 ft | 324 kts | 97° |
| 2026-04-24 06:31 | 51.90098 | -2.79495 | 10381 ft | 283 kts | 97° |
| 2026-04-24 06:32 | 51.89948 | -2.77369 | 10387 ft | 289 kts | 97° |
| 2026-04-24 06:32 | 51.89736 | -2.74377 | 9691 ft | 264 kts | 97° |
| 2026-04-24 06:32 | 51.89520 | -2.71391 | 8781 ft | 266 kts | 97° |
| 2026-04-24 06:32 | 51.89239 | -2.67497 | 7801 ft | 260 kts | 97° |
| 2026-04-24 06:33 | 51.89028 | -2.64604 | 7047 ft | 257 kts | 97° |
| 2026-04-24 06:33 | 51.88887 | -2.62671 | 6552 ft | 255 kts | 97° |
| 2026-04-24 06:33 | 51.88681 | -2.59834 | 5777 ft | 252 kts | 97° |
| 2026-04-24 06:33 | 51.88474 | -2.57022 | 4998 ft | 251 kts | 98° |
| 2026-04-24 06:34 | 51.88269 | -2.54237 | 4260 ft | 248 kts | 98° |
| 2026-04-24 06:34 | 51.88065 | -2.51472 | 3616 ft | 245 kts | 98° |
| 2026-04-24 06:34 | 51.87865 | -2.48774 | 3365 ft | 236 kts | 98° |
| 2026-04-24 06:34 | 51.87676 | -2.46230 | 3072 ft | 221 kts | 98° |
| 2026-04-24 06:35 | 51.87543 | -2.43860 | 2842 ft | 207 kts | 91° |
| 2026-04-24 06:35 | 51.87697 | -2.41562 | 2818 ft | 207 kts | 85° |
| 2026-04-24 06:35 | 51.87869 | -2.39261 | 2636 ft | 206 kts | 85° |
| 2026-04-24 06:35 | 51.88027 | -2.36958 | 2246 ft | 203 kts | 85° |
| 2026-04-24 06:36 | 51.88181 | -2.34720 | 1981 ft | 198 kts | 85° |
| 2026-04-24 06:36 | 51.88332 | -2.32509 | 1797 ft | 199 kts | 85° |
| 2026-04-24 06:36 | 51.88486 | -2.30279 | 1633 ft | 200 kts | 85° |
| 2026-04-24 06:36 | 51.88641 | -2.28022 | 1379 ft | 203 kts | 84° |
| 2026-04-24 06:37 | 51.88795 | -2.25760 | 1100 ft | 199 kts | 83° |
| 2026-04-24 06:37 | 51.88940 | -2.23631 | 807 ft | 178 kts | 83° |
| 2026-04-24 06:37 | 51.89068 | -2.21722 | 573 ft | 156 kts | 82° |
| 2026-04-24 06:37 | 51.89175 | -2.20074 | 381 ft | 139 kts | 82° |
| 2026-04-24 06:38 | 51.89281 | -2.18562 | 216 ft | 134 kts | 82° |
| 2026-04-24 06:38 | 51.89380 | -2.17109 | 101 ft | 118 kts | 82° |
| 2026-04-24 06:38 | 51.89441 | -2.16250 | 99 ft | 30 kts | 83° |
| 2026-04-24 06:38 | 51.89461 | -2.15996 | 103 ft | 16 kts | 83° |
| 2026-04-24 06:39 | 51.89387 | -2.15894 | 104 ft | 15 kts | 133° |
| 2026-04-24 06:39 | 51.89374 | -2.15811 | 108 ft | 0 kts | 113° |
| 2026-04-24 06:39 | 51.89354 | -2.15811 | 107 ft | 4 kts | 255° |
| 2026-04-24 06:39 | 51.89353 | -2.15821 | 107 ft | 0 kts | 261° |